^^
Meteo Knjazevac Station Historical Data
Daily Summary for July 17, 2021 Units:  Both    English   Metric
Daily Weekly Monthly Yearly Custom
  High: Low: Average:
Temperature: 68.2 °F /  20.1 °C 66.9 °F /  19.4 °C 67.4 °F /  19.7 °C
Dew Point: 57.9 °F /  14.4 °C 55.6 °F /  13.1 °C 56.8 °F /  13.8 °C
Humidity: 72% 65% 69%
Wind Speed: 2mph /  3.2km/h - 0.6mph /  1km/h
Wind Gust: 4mph /  6.4km/h - -
Wind- - SSW
Pressure: 30.06 in /  1017.8 hPa 30.02 in /  1016.5 hPa -
Precipitation: 0.00 in /  0 mm    
Historical Graphs
 
 
Tabular Data for July 17, 2021
Time Temperature Dew Point Pressure Wind Wind Speed Wind Gust Humidity Rainfall Rate (Hourly) solar Conditions
00:00 67.8 °F /  19.9 °C 56.5 °F /  13.6 °C 30.06in /  1017.8hPa West 2mph /  3.2km/h 4mph /  6.4km/h 67% 0.00in /  0mm 0 W/m2
00:10 67.8 °F /  19.9 °C 55.6 °F /  13.1 °C 30.06in /  1017.8hPa Calm   4mph /  6.4km/h 65% 0.00in /  0mm 0 W/m2
00:20 68 °F /  20 °C 55.8 °F /  13.2 °C 30.06in /  1017.8hPa Calm   1mph /  1.6km/h 65% 0.00in /  0mm 0 W/m2
00:30 67.8 °F /  19.9 °C 56.5 °F /  13.6 °C 30.06in /  1017.8hPa NW 1mph /  1.6km/h 2mph /  3.2km/h 67% 0.00in /  0mm 0 W/m2
00:40 68 °F /  20 °C 56.6 °F /  13.7 °C 30.06in /  1017.8hPa Calm   2mph /  3.2km/h 67% 0.00in /  0mm 0 W/m2
00:50 67.8 °F /  19.9 °C 56.9 °F /  13.8 °C 30.06in /  1017.8hPa Calm   2mph /  3.2km/h 68% 0.00in /  0mm 0 W/m2
01:00 67.8 °F /  19.9 °C 56.9 °F /  13.8 °C 30.06in /  1017.8hPa Calm     68% 0.00in /  0mm 0 W/m2
01:10 67.8 °F /  19.9 °C 56.5 °F /  13.6 °C 30.06in /  1017.8hPa North 1mph /  1.6km/h 2mph /  3.2km/h 67% 0.00in /  0mm 0 W/m2
01:20 67.8 °F /  19.9 °C 56.5 °F /  13.6 °C 30.06in /  1017.8hPa NW 1mph /  1.6km/h 3mph /  4.8km/h 67% 0.00in /  0mm 0 W/m2
01:30 68 °F /  20 °C 56.6 °F /  13.7 °C 30.05in /  1017.5hPa Calm   3mph /  4.8km/h 67% 0.00in /  0mm 0 W/m2
01:40 68 °F /  20 °C 56.6 °F /  13.7 °C 30.05in /  1017.5hPa North 1mph /  1.6km/h 3mph /  4.8km/h 67% 0.00in /  0mm 0 W/m2
01:50 68.2 °F /  20.1 °C 56.8 °F /  13.8 °C 30.05in /  1017.5hPa North 1mph /  1.6km/h 3mph /  4.8km/h 67% 0.00in /  0mm 0 W/m2
02:00 67.8 °F /  19.9 °C 56.9 °F /  13.8 °C 30.05in /  1017.5hPa Calm   3mph /  4.8km/h 68% 0.00in /  0mm 0 W/m2
02:10 67.5 °F /  19.7 °C 56.5 °F /  13.6 °C 30.05in /  1017.5hPa West 1mph /  1.6km/h 2mph /  3.2km/h 68% 0.00in /  0mm 0 W/m2
02:20 67.3 °F /  19.6 °C 56.8 °F /  13.8 °C 30.04in /  1017.2hPa Calm   3mph /  4.8km/h 69% 0.00in /  0mm 0 W/m2
02:30 67.1 °F /  19.5 °C 56.6 °F /  13.7 °C 30.04in /  1017.2hPa Calm   2mph /  3.2km/h 69% 0.00in /  0mm 0 W/m2
02:40 66.9 °F /  19.4 °C 56.4 °F /  13.6 °C 30.04in /  1017.2hPa Calm   2mph /  3.2km/h 69% 0.00in /  0mm 0 W/m2
02:50 66.9 °F /  19.4 °C 56.4 °F /  13.6 °C 30.04in /  1017.2hPa North 2mph /  3.2km/h 3mph /  4.8km/h 69% 0.00in /  0mm 0 W/m2
03:00 66.9 °F /  19.4 °C 56.8 °F /  13.8 °C 30.04in /  1017.2hPa Calm   2mph /  3.2km/h 70% 0.00in /  0mm 0 W/m2
03:10 66.9 °F /  19.4 °C 56.8 °F /  13.8 °C 30.04in /  1017.2hPa NNW 1mph /  1.6km/h 2mph /  3.2km/h 70% 0.00in /  0mm 0 W/m2
03:20 66.9 °F /  19.4 °C 56.8 °F /  13.8 °C 30.04in /  1017.2hPa Calm   2mph /  3.2km/h 70% 0.00in /  0mm 0 W/m2
03:30 67.3 °F /  19.6 °C 56.8 °F /  13.8 °C 30.03in /  1016.8hPa ENE 1mph /  1.6km/h 4mph /  6.4km/h 69% 0.00in /  0mm 0 W/m2
03:40 67.3 °F /  19.6 °C 57.2 °F /  14 °C 30.03in /  1016.8hPa NNW 1mph /  1.6km/h 3mph /  4.8km/h 70% 0.00in /  0mm 0 W/m2
03:50 67.3 °F /  19.6 °C 57.2 °F /  14 °C 30.03in /  1016.8hPa Calm   2mph /  3.2km/h 70% 0.00in /  0mm 0 W/m2
04:00 67.5 °F /  19.7 °C 57.3 °F /  14.1 °C 30.03in /  1016.8hPa Calm   3mph /  4.8km/h 70% 0.00in /  0mm 0 W/m2
04:10 67.3 °F /  19.6 °C 57.9 °F /  14.4 °C 30.03in /  1016.8hPa NE 1mph /  1.6km/h 3mph /  4.8km/h 72% 0.00in /  0mm 0 W/m2
04:20 66.9 °F /  19.4 °C 57.6 °F /  14.2 °C 30.03in /  1016.8hPa NNW 1mph /  1.6km/h 3mph /  4.8km/h 72% 0.00in /  0mm 0 W/m2
04:30 66.9 °F /  19.4 °C 57.6 °F /  14.2 °C 30.03in /  1016.8hPa NNW 1mph /  1.6km/h 3mph /  4.8km/h 72% 0.00in /  0mm 0 W/m2
04:40 66.9 °F /  19.4 °C 57.6 °F /  14.2 °C 30.04in /  1017.2hPa NNW 1mph /  1.6km/h 3mph /  4.8km/h 72% 0.00in /  0mm 0 W/m2
04:50 66.9 °F /  19.4 °C 57.6 °F /  14.2 °C 30.03in /  1016.8hPa NNE 2mph /  3.2km/h 4mph /  6.4km/h 72% 0.00in /  0mm 0 W/m2
05:00 66.9 °F /  19.4 °C 57.6 °F /  14.2 °C 30.02in /  1016.5hPa NNE 1mph /  1.6km/h 4mph /  6.4km/h 72% 0.00in /  0mm 0 W/m2
Knjazevac, Serbia
Compliments of Weather Underground - 2 mb